Terminal Aerodrome Forecast
Issued by NWS

Home | Current Version | Previous Version | Text Only | Print | Product List | Glossary On
Versions: 1 2 3 4 5 6 7 8 9 10 11 12 13 14 15 16 17
810
FTUS41 KCAR 240538
TAFFVE
TAF
KFVE 240538Z 2406/2506 07006KT P6SM OVC200
     FM241400 07008KT P6SM OVC035
     FM241700 07011KT 3SM -SN OVC015
     FM241900 07013G23KT 1SM -SNPL OVC008
     FM242300 06015G25KT 2SM PL OVC008=

USA.gov is the U.S. government's official web portal to all federal, state and local government web resources and services.